createdAt,value
2022-11-29T00:00:57.866Z,6.90
2022-11-29T00:03:25.450Z,7.30
2022-11-29T00:05:53.751Z,6.90
2022-11-29T00:08:21.275Z,6.57
2022-11-29T00:10:48.812Z,8.63
2022-11-29T00:13:16.364Z,7.20
2022-11-29T00:15:44.697Z,7.90
2022-11-29T00:18:12.234Z,7.70
2022-11-29T00:20:40.101Z,7.80
2022-11-29T00:23:07.647Z,7.30
2022-11-29T00:25:35.161Z,6.93
2022-11-29T00:28:02.775Z,7.17
2022-11-29T00:30:30.299Z,7.17
2022-11-29T00:32:57.814Z,6.73
2022-11-29T00:35:25.381Z,7.17
2022-11-29T00:37:52.914Z,7.47
2022-11-29T00:40:20.441Z,9.45
2022-11-29T00:42:47.993Z,6.43
2022-11-29T00:45:16.309Z,7.40
2022-11-29T00:47:43.861Z,7.33
2022-11-29T00:50:11.564Z,7.20
2022-11-29T00:52:39.086Z,7.47
2022-11-29T00:55:06.729Z,9.38
2022-11-29T00:57:34.274Z,7.27
2022-11-29T01:00:01.801Z,7.03
2022-11-29T01:02:29.380Z,6.93
2022-11-29T01:04:56.881Z,8.98
2022-11-29T01:07:24.435Z,7.50
2022-11-29T01:09:51.938Z,7.23
2022-11-29T01:12:19.513Z,7.57
2022-11-29T01:14:47.857Z,6.70
2022-11-29T01:17:15.350Z,6.97
2022-11-29T01:19:49.343Z,7.97
2022-11-29T01:22:11.208Z,7.40
2022-11-29T01:24:38.732Z,7.10
2022-11-29T01:27:06.287Z,6.90
2022-11-29T01:29:33.821Z,6.80
2022-11-29T01:32:01.348Z,7.67
2022-11-29T01:34:28.911Z,7.40
2022-11-29T01:36:56.436Z,7.20
2022-11-29T01:39:24.739Z,7.60
2022-11-29T01:41:52.303Z,7.13
2022-11-29T01:44:19.828Z,6.70
2022-11-29T01:46:48.120Z,6.97
2022-11-29T01:49:19.203Z,6.73
2022-11-29T01:51:46.734Z,6.47
2022-11-29T01:54:14.260Z,7.33
2022-11-29T01:56:42.614Z,7.00
2022-11-29T01:59:10.152Z,9.97
2022-11-29T02:01:37.742Z,11.90
2022-11-29T02:04:05.246Z,9.63
2022-11-29T02:06:32.858Z,7.73
2022-11-29T02:09:00.397Z,8.63
2022-11-29T02:11:33.394Z,15.50
2022-11-29T02:14:31.825Z,12.10
2022-11-29T02:16:59.429Z,11.50
2022-11-29T02:19:48.290Z,8.87
2022-11-29T02:22:30.781Z,7.50
2022-11-29T02:25:07.276Z,6.50
2022-11-29T02:27:40.473Z,6.80
2022-11-29T02:55:09.144Z,6.37
2022-11-29T02:57:46.463Z,6.67
2022-11-29T03:00:14.176Z,6.40
2022-11-29T03:02:56.783Z,6.17
2022-11-29T03:05:40.203Z,8.50
2022-11-29T03:08:28.858Z,7.43
2022-11-29T03:11:00.377Z,8.97
2022-11-29T03:13:36.833Z,8.52
2022-11-29T03:16:04.444Z,6.83
2022-11-29T03:18:34.602Z,6.47
2022-11-29T03:21:21.218Z,6.57
2022-11-29T03:23:48.781Z,6.40
2022-11-29T03:26:22.109Z,8.17
2022-11-29T03:28:55.925Z,18.73
2022-11-29T03:48:28.070Z,9.52
2022-11-29T03:50:55.624Z,7.40
2022-11-29T03:53:28.919Z,7.53
2022-11-29T03:55:59.330Z,7.93
2022-11-29T03:58:47.640Z,6.73
2022-11-29T04:01:20.975Z,7.97
2022-11-29T04:03:54.250Z,7.87
2022-11-29T04:06:40.726Z,7.13
2022-11-29T04:09:20.287Z,7.10
2022-11-29T04:12:00.599Z,6.70
2022-11-29T04:14:30.802Z,7.40
2022-11-29T04:17:32.355Z,7.63
2022-11-29T04:20:32.883Z,7.47
2022-11-29T04:23:18.467Z,7.60
2022-11-29T04:26:10.027Z,9.40
2022-11-29T04:28:58.800Z,8.27
2022-11-29T04:31:50.635Z,7.60
2022-11-29T04:34:20.887Z,10.32
2022-11-29T04:37:18.689Z,8.50
2022-11-29T04:39:55.184Z,7.87
2022-11-29T04:42:40.569Z,8.60
2022-11-29T04:45:19.624Z,9.88
2022-11-29T04:47:56.749Z,8.37
2022-11-29T04:50:48.426Z,7.60
2022-11-29T04:53:25.573Z,8.43
2022-11-29T04:56:20.961Z,8.50
2022-11-29T05:16:12.746Z,8.83
2022-11-29T05:18:49.420Z,9.80
2022-11-29T05:21:42.388Z,12.43
2022-11-29T05:24:32.903Z,10.30
2022-11-29T05:27:18.851Z,9.93
2022-11-29T05:29:49.182Z,10.17
2022-11-29T05:32:44.246Z,9.03
2022-11-29T05:35:20.504Z,13.45
2022-11-29T05:37:53.317Z,10.67
2022-11-29T05:40:39.215Z,10.90
2022-11-29T05:43:12.472Z,13.73
2022-11-29T05:45:42.783Z,11.00
2022-11-29T05:48:22.171Z,10.83
2022-11-29T05:51:07.971Z,10.80
2022-11-29T05:53:36.268Z,13.27
2022-11-29T05:56:06.645Z,10.87
2022-11-29T05:58:48.967Z,9.73
2022-11-29T06:01:22.447Z,9.33
2022-11-29T06:04:13.324Z,10.17
2022-11-29T06:06:38.805Z,9.83
2022-11-29T06:09:06.331Z,12.68
2022-11-29T06:11:34.252Z,13.20
2022-11-29T06:14:07.436Z,14.65
2022-11-29T06:17:05.662Z,10.93
2022-11-29T06:19:51.078Z,14.07
2022-11-29T06:22:43.534Z,13.03
2022-11-29T06:25:13.529Z,11.33
2022-11-29T06:28:02.757Z,11.13
2022-11-29T06:30:33.026Z,11.00
2022-11-29T06:33:06.420Z,17.27
2022-11-29T06:35:53.676Z,18.10
2022-11-29T06:38:24.165Z,20.37
2022-11-29T06:40:54.944Z,15.67
2022-11-29T06:43:20.121Z,13.00
2022-11-29T06:45:47.644Z,10.80
2022-11-29T06:48:15.170Z,9.87
2022-11-29T06:50:48.668Z,11.00
2022-11-29T06:53:34.973Z,11.13
2022-11-29T06:56:02.911Z,15.68
2022-11-29T06:58:45.432Z,10.33
2022-11-29T07:01:31.222Z,8.50
2022-11-29T07:03:59.475Z,9.33
2022-11-29T07:06:27.078Z,9.00
2022-11-29T07:08:54.654Z,9.37
2022-11-29T07:11:22.207Z,8.93
2022-11-29T07:13:49.732Z,9.23
2022-11-29T07:16:32.288Z,11.63
2022-11-29T07:19:20.761Z,8.80
2022-11-29T07:22:06.253Z,7.80
2022-11-29T07:24:42.683Z,7.13
2022-11-29T07:27:28.616Z,6.57
2022-11-29T07:30:05.112Z,9.10
2022-11-29T07:32:53.688Z,6.43
2022-11-29T07:35:18.149Z,5.93
2022-11-29T07:37:57.533Z,8.45
2022-11-29T07:40:44.460Z,6.93
2022-11-29T07:43:39.191Z,7.13
2022-11-29T07:46:06.726Z,5.93
2022-11-29T07:48:34.270Z,6.30
2022-11-29T07:51:02.608Z,7.43
2022-11-29T07:53:30.128Z,7.90
2022-11-29T07:55:57.669Z,7.70
2022-11-29T07:58:26.313Z,7.37
2022-11-29T08:00:53.859Z,7.50
2022-11-29T08:03:22.097Z,6.17
2022-11-29T08:05:49.662Z,5.70
2022-11-29T08:08:17.187Z,5.23
2022-11-29T08:10:45.489Z,6.37
2022-11-29T08:13:13.054Z,6.27
2022-11-29T08:15:46.289Z,6.50
2022-11-29T08:18:13.838Z,5.93
2022-11-29T08:20:41.479Z,6.70
2022-11-29T08:23:09.002Z,7.05
2022-11-29T08:25:37.305Z,5.97
2022-11-29T08:28:05.471Z,6.77
2022-11-29T08:30:33.009Z,6.87
2022-11-29T08:33:01.317Z,6.13
2022-11-29T08:35:28.962Z,5.60
2022-11-29T08:37:56.488Z,5.80
2022-11-29T08:40:24.132Z,5.77
2022-11-29T08:42:51.593Z,6.07
2022-11-29T08:45:19.129Z,6.20
2022-11-29T08:47:46.655Z,6.95
2022-11-29T08:50:14.237Z,6.00
2022-11-29T08:52:59.859Z,6.77
2022-11-29T08:55:27.773Z,5.70
2022-11-29T08:57:55.294Z,5.93
2022-11-29T09:00:23.623Z,5.67
2022-11-29T09:02:51.939Z,6.00
2022-11-29T09:05:19.454Z,7.03
2022-11-29T09:07:47.846Z,7.03
2022-11-29T09:10:15.354Z,7.63
2022-11-29T09:12:43.643Z,9.07
2022-11-29T09:15:11.209Z,7.93
2022-11-29T09:17:38.732Z,7.77
2022-11-29T09:20:06.454Z,8.47
2022-11-29T09:22:33.990Z,7.23
2022-11-29T09:25:01.562Z,6.67
2022-11-29T09:27:29.099Z,6.83
2022-11-29T09:29:57.400Z,7.13
2022-11-29T09:32:24.974Z,6.87
2022-11-29T09:34:52.509Z,7.50
2022-11-29T09:37:20.033Z,7.50
2022-11-29T09:39:48.375Z,7.83
2022-11-29T09:42:18.347Z,8.47
2022-11-29T09:44:51.785Z,10.23
2022-11-29T09:47:31.273Z,7.97
2022-11-29T09:50:23.858Z,8.37
2022-11-29T09:52:51.401Z,7.33
2022-11-29T09:55:21.652Z,10.02
2022-11-29T09:57:49.217Z,7.07
2022-11-29T10:00:19.309Z,6.27
2022-11-29T10:02:46.804Z,6.73
2022-11-29T10:05:23.942Z,6.63
2022-11-29T10:07:57.707Z,6.60
2022-11-29T10:10:40.360Z,7.80
2022-11-29T10:13:19.367Z,9.00
2022-11-29T10:15:47.715Z,9.02
2022-11-29T10:18:21.177Z,7.23
2022-11-29T10:20:49.315Z,8.43
2022-11-29T10:23:16.361Z,7.93
2022-11-29T10:25:47.642Z,9.38
2022-11-29T10:28:15.175Z,6.60
2022-11-29T10:30:42.800Z,5.93
2022-11-29T10:33:19.095Z,6.73
2022-11-29T10:35:47.430Z,7.00
2022-11-29T10:38:30.237Z,6.90
2022-11-29T10:40:42.479Z,7.67
2022-11-29T10:43:10.831Z,6.90
2022-11-29T10:45:44.389Z,7.27
2022-11-29T10:48:12.637Z,8.38
2022-11-29T10:50:40.976Z,7.43
2022-11-29T10:53:08.552Z,7.40
2022-11-29T10:55:47.636Z,6.33
2022-11-29T10:58:24.845Z,6.77
2022-11-29T11:00:57.335Z,6.33
2022-11-29T11:03:27.768Z,6.60
2022-11-29T11:06:01.592Z,6.33
2022-11-29T11:08:29.884Z,6.50
2022-11-29T11:11:01.722Z,6.13
2022-11-29T11:13:25.760Z,6.70
2022-11-29T11:15:56.213Z,5.57
2022-11-29T11:18:23.758Z,4.50
2022-11-29T11:20:54.047Z,3.30
2022-11-29T11:23:24.280Z,4.60
2022-11-29T11:25:51.815Z,3.83
2022-11-29T11:28:22.367Z,3.93
2022-11-29T11:30:53.065Z,4.33
2022-11-29T11:33:32.299Z,3.70
2022-11-29T11:36:06.026Z,3.67
2022-11-29T11:38:33.553Z,3.47
2022-11-29T11:41:22.789Z,4.33
2022-11-29T11:43:50.322Z,3.90
2022-11-29T11:46:18.243Z,3.90
2022-11-29T11:48:46.338Z,3.70
2022-11-29T11:51:19.318Z,4.13
2022-11-29T11:53:46.842Z,3.80
2022-11-29T11:56:14.457Z,3.77
2022-11-29T11:58:44.788Z,4.20
2022-11-29T12:01:15.001Z,4.20
2022-11-29T12:03:51.153Z,3.70
2022-11-29T12:06:55.106Z,3.40
2022-11-29T12:09:28.728Z,3.40
2022-11-29T12:12:20.391Z,3.78
2022-11-29T12:14:59.583Z,3.13
2022-11-29T12:17:39.004Z,3.20
2022-11-29T12:20:24.657Z,3.80
2022-11-29T12:23:06.970Z,3.58
2022-11-29T12:25:34.539Z,3.10
2022-11-29T12:28:02.071Z,3.10
2022-11-29T12:30:29.605Z,3.10
2022-11-29T12:33:06.957Z,2.47
2022-11-29T12:35:40.163Z,3.07
2022-11-29T12:38:19.472Z,3.20
2022-11-29T12:41:05.094Z,2.90
2022-11-29T12:43:35.868Z,2.70
2022-11-29T12:46:24.158Z,2.60
2022-11-29T12:48:54.765Z,3.27
2022-11-29T12:51:28.010Z,3.20
2022-11-29T12:54:16.353Z,3.40
2022-11-29T12:56:44.659Z,3.10
2022-11-29T12:59:12.191Z,3.40
2022-11-29T13:01:45.953Z,3.20
2022-11-29T13:04:19.783Z,3.40
2022-11-29T13:06:56.635Z,3.13
2022-11-29T13:09:42.329Z,3.20
2022-11-29T13:12:19.270Z,4.00
2022-11-29T13:15:14.088Z,4.15
2022-11-29T13:17:47.856Z,3.70
2022-11-29T13:20:36.431Z,4.60
2022-11-29T13:23:10.426Z,3.07
2022-11-29T13:25:37.960Z,3.23
2022-11-29T13:28:06.272Z,3.07
2022-11-29T13:30:37.214Z,3.30
2022-11-29T13:33:13.682Z,3.70
2022-11-29T13:35:59.070Z,3.63
2022-11-29T13:38:32.064Z,3.20
2022-11-29T13:41:05.546Z,3.13
2022-11-29T13:43:36.085Z,3.62
2022-11-29T13:46:15.906Z,3.57
2022-11-29T13:48:55.366Z,3.60
2022-11-29T13:51:28.663Z,3.80
2022-11-29T13:53:56.199Z,3.90
2022-11-29T13:56:44.446Z,3.90
2022-11-29T13:59:23.609Z,4.03
2022-11-29T14:01:51.280Z,3.80
2022-11-29T14:04:25.432Z,4.50
2022-11-29T14:07:01.917Z,4.13
2022-11-29T14:09:33.185Z,4.20
2022-11-29T14:12:12.721Z,3.53
2022-11-29T14:14:55.529Z,3.97
2022-11-29T14:17:53.695Z,4.00
2022-11-29T14:20:23.895Z,3.20
2022-11-29T14:23:06.485Z,3.40
2022-11-29T14:25:53.383Z,4.17
2022-11-29T14:28:23.830Z,4.00
2022-11-29T14:30:51.371Z,4.20
2022-11-29T14:33:43.039Z,3.60
2022-11-29T14:36:19.387Z,3.77
2022-11-29T14:38:56.205Z,4.13
2022-11-29T14:41:38.588Z,3.37
2022-11-29T14:44:06.173Z,3.27
2022-11-29T14:46:33.736Z,3.67
2022-11-29T14:49:01.999Z,4.53
2022-11-29T14:51:29.604Z,4.07
2022-11-29T14:54:12.207Z,3.93
2022-11-29T14:56:39.797Z,3.80
2022-11-29T14:59:42.049Z,3.67
2022-11-29T15:02:30.891Z,4.10
2022-11-29T15:04:58.386Z,3.77
2022-11-29T15:07:29.411Z,4.07
2022-11-29T15:09:57.523Z,3.50
2022-11-29T15:12:25.047Z,3.30
2022-11-29T15:15:11.594Z,4.13
2022-11-29T15:17:51.447Z,3.90
2022-11-29T15:20:37.187Z,3.50
2022-11-29T15:23:05.481Z,4.57
2022-11-29T15:25:33.017Z,4.00
2022-11-29T15:28:04.478Z,3.33
2022-11-29T15:30:35.735Z,3.63
2022-11-29T15:33:05.921Z,4.13
2022-11-29T15:35:33.485Z,4.10
2022-11-29T15:38:01.027Z,5.00
2022-11-29T15:40:28.552Z,4.50
2022-11-29T15:42:57.131Z,4.60
2022-11-29T15:45:27.480Z,4.13
2022-11-29T15:47:54.918Z,4.57
2022-11-29T15:50:25.476Z,4.53
2022-11-29T15:52:53.009Z,5.27
2022-11-29T15:55:20.533Z,4.90
2022-11-29T15:57:48.886Z,4.90
2022-11-29T16:00:16.443Z,4.50
2022-11-29T16:02:47.096Z,5.20
2022-11-29T16:05:21.110Z,5.10
2022-11-29T16:07:49.453Z,6.65
2022-11-29T16:10:30.469Z,4.80
2022-11-29T16:12:56.544Z,6.40
2022-11-29T16:15:30.028Z,6.30
2022-11-29T16:17:59.499Z,5.40
2022-11-29T16:20:27.144Z,5.40
2022-11-29T16:23:10.263Z,5.47
2022-11-29T16:25:50.482Z,6.33
2022-11-29T16:28:18.359Z,6.37
2022-11-29T16:30:45.886Z,5.93
2022-11-29T16:33:16.147Z,7.10
2022-11-29T16:35:44.381Z,7.77
2022-11-29T16:38:20.649Z,7.68
2022-11-29T16:41:06.372Z,7.40
2022-11-29T16:43:46.528Z,6.77
2022-11-29T16:46:22.502Z,7.83
2022-11-29T16:48:50.802Z,8.82
2022-11-29T16:51:27.799Z,8.17
2022-11-29T16:53:55.403Z,7.80
2022-11-29T16:56:25.635Z,6.30
2022-11-29T16:59:24.699Z,7.90
2022-11-29T17:01:24.721Z,7.20
2022-11-29T17:03:52.248Z,6.60
2022-11-29T17:06:23.790Z,6.60
2022-11-29T17:08:51.317Z,6.70
2022-11-29T17:11:18.840Z,6.07
2022-11-29T17:13:46.426Z,6.20
2022-11-29T17:16:16.944Z,7.27
2022-11-29T17:18:45.175Z,8.77
2022-11-29T17:21:27.440Z,7.60
2022-11-29T17:23:54.964Z,7.40
2022-11-29T17:26:22.499Z,7.43
2022-11-29T17:28:50.347Z,9.33
2022-11-29T17:31:18.666Z,8.43
2022-11-29T17:33:46.172Z,10.07
2022-11-29T17:36:14.814Z,9.53
2022-11-29T17:38:42.300Z,10.00
2022-11-29T17:41:09.834Z,8.70
2022-11-29T17:43:38.374Z,7.07
2022-11-29T17:46:17.941Z,6.10
2022-11-29T17:48:45.475Z,5.73
2022-11-29T17:51:35.970Z,5.20
2022-11-29T17:53:41.296Z,4.83
2022-11-29T17:56:09.616Z,4.90
2022-11-29T17:58:37.140Z,5.00
2022-11-29T18:01:10.622Z,6.57
2022-11-29T18:03:38.168Z,7.00
2022-11-29T18:06:08.390Z,7.57
2022-11-29T18:08:38.701Z,7.80
2022-11-29T18:11:09.582Z,10.80
2022-11-29T18:13:37.108Z,18.80
2022-11-29T18:16:04.633Z,17.70
2022-11-29T18:18:34.521Z,15.73
2022-11-29T18:21:02.057Z,14.13
2022-11-29T18:23:30.348Z,13.07
2022-11-29T18:25:57.923Z,13.47
2022-11-29T18:28:25.447Z,13.03
2022-11-29T18:30:53.815Z,13.87
2022-11-29T18:33:21.337Z,12.63
2022-11-29T18:35:48.858Z,13.03
2022-11-29T18:38:16.793Z,12.70
2022-11-29T18:40:43.947Z,11.10
2022-11-29T18:43:11.492Z,10.73
2022-11-29T18:45:39.070Z,13.10
2022-11-29T18:48:06.571Z,13.10
2022-11-29T18:50:34.098Z,13.50
2022-11-29T18:53:02.390Z,15.00
2022-11-29T18:55:30.357Z,14.17
2022-11-29T18:57:57.882Z,13.07
2022-11-29T19:00:25.427Z,12.93
2022-11-29T19:02:53.010Z,13.53
2022-11-29T19:05:20.526Z,16.45
2022-11-29T19:07:48.173Z,12.70
2022-11-29T19:10:15.644Z,11.93
2022-11-29T19:12:43.171Z,9.70
2022-11-29T19:15:10.782Z,10.50
2022-11-29T19:17:42.958Z,16.20
2022-11-29T19:20:06.898Z,14.43
2022-11-29T19:22:34.421Z,16.07
2022-11-29T19:25:02.005Z,15.13
2022-11-29T19:27:29.539Z,13.57
2022-11-29T19:29:57.079Z,19.97
2022-11-29T19:32:24.639Z,21.47
2022-11-29T19:34:52.978Z,22.83
2022-11-29T19:37:20.496Z,18.73
2022-11-29T19:39:48.328Z,19.03
2022-11-29T19:42:15.594Z,18.23
2022-11-29T19:45:15.346Z,15.83
2022-11-29T19:47:11.473Z,16.37
2022-11-29T19:49:38.996Z,14.57
2022-11-29T19:52:07.309Z,14.73
2022-11-29T19:54:34.884Z,16.07
2022-11-29T19:57:02.409Z,15.53
2022-11-29T19:59:29.933Z,15.40
2022-11-29T20:01:57.535Z,14.33
2022-11-29T20:04:25.042Z,15.17
2022-11-29T20:06:52.566Z,16.27
2022-11-29T20:09:20.134Z,22.77
2022-11-29T20:11:47.665Z,20.33
2022-11-29T20:14:15.190Z,20.33
2022-11-29T20:16:43.546Z,19.90
2022-11-29T20:19:11.081Z,14.80
2022-11-29T20:21:38.613Z,14.97
2022-11-29T20:24:06.297Z,17.40
2022-11-29T20:26:33.829Z,14.60
2022-11-29T20:29:01.347Z,11.13
2022-11-29T20:31:28.975Z,12.57
2022-11-29T20:33:59.362Z,17.23
2022-11-29T20:36:49.375Z,18.07
2022-11-29T20:39:22.390Z,27.37
2022-11-29T20:42:14.594Z,33.13
2022-11-29T20:44:45.018Z,37.60
2022-11-29T20:47:15.231Z,30.77
2022-11-29T20:49:42.869Z,30.27
2022-11-29T20:52:31.500Z,25.63
2022-11-29T20:54:59.064Z,21.77
2022-11-29T20:57:26.589Z,23.77
2022-11-29T20:59:54.153Z,23.67
2022-11-29T21:02:22.456Z,18.90
2022-11-29T21:04:49.991Z,23.30
2022-11-29T21:07:17.547Z,18.33
2022-11-29T21:09:45.090Z,15.50
2022-11-29T21:12:12.811Z,14.13
2022-11-29T21:14:40.356Z,14.80
2022-11-29T21:17:08.177Z,15.10
2022-11-29T21:19:35.701Z,14.23
2022-11-29T21:22:12.718Z,14.00
2022-11-29T21:24:58.261Z,12.53
2022-11-29T21:27:29.232Z,11.77
2022-11-29T21:29:56.769Z,11.67
2022-11-29T21:32:25.060Z,12.80
2022-11-29T21:34:52.628Z,12.73
2022-11-29T21:37:20.168Z,12.67
2022-11-29T21:39:48.483Z,11.60
2022-11-29T21:42:16.321Z,13.43
2022-11-29T21:44:43.973Z,12.33
2022-11-29T21:47:12.150Z,10.70
2022-11-29T21:49:40.047Z,9.43
2022-11-29T21:52:07.577Z,10.77
2022-11-29T21:54:35.886Z,9.67
2022-11-29T21:57:04.037Z,10.40
2022-11-29T21:59:31.567Z,11.80
2022-11-29T22:01:59.262Z,10.83
2022-11-29T22:04:26.950Z,11.23
2022-11-29T22:06:54.475Z,15.25
2022-11-29T22:09:22.001Z,10.90
2022-11-29T22:11:49.565Z,10.13
2022-11-29T22:14:20.584Z,10.47
2022-11-29T22:16:54.159Z,11.70
2022-11-29T22:19:21.749Z,16.93
2022-11-29T22:21:49.254Z,18.13
2022-11-29T22:24:16.770Z,18.97
2022-11-29T22:26:45.495Z,15.60
2022-11-29T22:29:13.045Z,10.53
2022-11-29T22:31:41.411Z,8.03
2022-11-29T22:34:09.153Z,7.40
2022-11-29T22:36:36.677Z,9.80
2022-11-29T22:39:04.212Z,12.73
2022-11-29T22:41:32.102Z,12.17
2022-11-29T22:43:59.648Z,13.83
2022-11-29T22:46:27.260Z,17.23
2022-11-29T22:48:54.757Z,16.87
2022-11-29T22:51:25.422Z,15.77
2022-11-29T22:53:52.955Z,10.83
2022-11-29T22:56:20.521Z,12.40
2022-11-29T22:58:48.054Z,10.23
2022-11-29T23:01:16.408Z,10.13
2022-11-29T23:03:43.911Z,11.93
2022-11-29T23:06:11.436Z,11.67
2022-11-29T23:08:39.729Z,9.67
2022-11-29T23:11:07.294Z,9.07
2022-11-29T23:13:34.821Z,9.93
2022-11-29T23:16:02.406Z,8.43
2022-11-29T23:18:29.918Z,9.93
2022-11-29T23:21:09.454Z,11.38
2022-11-29T23:23:36.993Z,11.18
2022-11-29T23:26:04.536Z,11.93
2022-11-29T23:28:32.060Z,10.10
2022-11-29T23:31:02.164Z,9.93
2022-11-29T23:33:29.710Z,11.03
2022-11-29T23:36:00.147Z,11.33
2022-11-29T23:38:28.295Z,12.63
2022-11-29T23:40:55.808Z,12.73
2022-11-29T23:43:24.111Z,10.50
2022-11-29T23:45:51.731Z,11.10
2022-11-29T23:48:19.210Z,12.37
2022-11-29T23:50:46.744Z,14.27
2022-11-29T23:53:14.309Z,15.00
2022-11-29T23:55:42.605Z,15.60
2022-11-29T23:58:10.136Z,14.77
